Time;durP1;ratioP1;P1;durP2;ratioP2;P2;SDS_P1;SDS_P2;PMS_P1;PMS_P2;Temp;Humidity;BMP_temperature;BMP_pressure;BME280_temperature;BME280_humidity;BME280_pressure;Samples;Min_cycle;Max_cycle;Signal;HPM_P1;HPM_P2
2022/02/06 00:01:12;;;;;;;44.15;30.67;;;;;;;9.74;84.71;100810.66;5060352;28;20025;-79
2022/02/06 00:03:39;;;;;;;43.03;30.05;;;;;;;9.76;84.04;100818.69;5059672;28;20021;-79
2022/02/06 00:06:06;;;;;;;48.35;29.52;;;;;;;9.73;83.34;100808.25;5060002;28;20028;-79
2022/02/06 00:08:32;;;;;;;47.33;27.65;;;;;;;9.58;83.44;100796.59;5060214;28;20039;-79
2022/02/06 00:11:05;;;;;;;51.38;27.30;;;;;;;9.56;84.60;100812.00;5060870;28;20025;-79
2022/02/06 00:13:33;;;;;;;44.10;26.63;;;;;;;9.56;83.97;100820.34;5060439;28;20123;-79
2022/02/06 00:16:01;;;;;;;45.50;25.30;;;;;;;9.48;84.41;100827.59;5060100;28;20082;-80
2022/02/06 00:18:29;;;;;;;51.08;27.95;;;;;;;9.38;84.63;100814.94;5061094;28;20468;-80
2022/02/06 00:20:59;;;;;;;48.67;27.73;;;;;;;9.37;84.44;100818.84;5060893;28;20038;-80
2022/02/06 00:23:27;;;;;;;47.58;27.27;;;;;;;9.37;84.43;100818.84;5061220;28;20044;-80
2022/02/06 00:26:05;;;;;;;43.45;26.55;;;;;;;9.26;84.67;100816.81;5060998;28;20395;-80
2022/02/06 00:28:42;;;;;;;58.97;28.65;;;;;;;9.28;85.22;100822.88;5061074;28;20025;-80
2022/02/06 00:34:02;;;;;;;50.58;27.52;;;;;;;9.15;84.66;100821.97;5079094;28;20029;-79
2022/02/06 00:39:11;;;;;;;58.88;34.40;;;;;;;9.19;84.31;100826.50;5079111;28;20182;-80
2022/02/06 00:41:42;;;;;;;59.35;33.40;;;;;;;9.16;84.19;100824.44;5061252;28;20060;-80
2022/02/06 00:44:14;;;;;;;45.50;29.63;;;;;;;9.11;83.58;100821.84;5061409;28;20391;-80
2022/02/06 00:46:44;;;;;;;50.83;30.30;;;;;;;9.07;84.05;100820.88;5061087;28;20037;-80
2022/02/06 00:49:26;;;;;;;46.17;28.77;;;;;;;9.03;84.01;100821.91;5062944;28;20096;-80
2022/02/06 00:52:27;;;;;;;48.35;27.30;;;;;;;9.01;84.09;100824.22;5065769;28;20040;-80
2022/02/06 00:54:56;;;;;;;41.25;25.63;;;;;;;9.07;83.96;100817.31;5064380;28;20039;-79
2022/02/06 00:57:27;;;;;;;38.72;23.67;;;;;;;9.01;83.00;100813.91;5082174;28;20112;-80
2022/02/06 00:59:55;;;;;;;44.00;22.83;;;;;;;8.92;82.91;100811.19;5066509;28;20145;-80
2022/02/06 01:02:29;;;;;;;41.30;21.65;;;;;;;8.99;83.11;100812.59;5066111;28;20041;-80
2022/02/06 01:04:54;;;;;;;45.17;21.83;;;;;;;8.95;83.27;100817.19;5082789;28;20036;-80
2022/02/06 01:07:26;;;;;;;38.63;23.00;;;;;;;8.89;83.27;100813.81;5065332;28;20033;-80
2022/02/06 01:09:56;;;;;;;37.60;21.77;;;;;;;8.82;83.30;100808.81;5066113;28;20044;-80
2022/02/06 01:12:25;;;;;;;32.53;22.13;;;;;;;8.90;83.04;100819.03;5081567;28;20093;-79
2022/02/06 01:15:08;;;;;;;41.38;23.27;;;;;;;8.83;82.42;100804.88;5060249;28;20043;-79
2022/02/06 01:18:05;;;;;;;37.30;19.80;;;;;;;8.95;82.05;100818.03;5046260;28;20066;-80
2022/02/06 01:20:47;;;;;;;30.88;19.27;;;;;;;9.00;82.10;100823.41;5078075;28;20040;-79
2022/02/06 01:23:29;;;;;;;32.72;19.20;;;;;;;8.97;81.26;100814.91;5060845;28;20035;-79
2022/02/06 01:26:08;;;;;;;33.03;18.65;;;;;;;8.81;81.85;100809.94;5060928;28;20035;-80
2022/02/06 01:28:42;;;;;;;22.65;16.27;;;;;;;8.83;81.77;100812.38;5060746;28;20071;-80
2022/02/06 01:33:45;;;;;;;40.35;19.60;;;;;;;8.80;82.16;100813.88;5078604;28;20029;-79
2022/02/06 01:39:36;;;;;;;29.50;18.95;;;;;;;8.82;82.36;100808.81;5016041;28;20030;-80
2022/02/06 01:42:15;;;;;;;31.27;18.40;;;;;;;8.84;81.82;100805.69;5059214;28;20097;-79
2022/02/06 01:45:36;;;;;;;26.05;18.67;;;;;;;8.87;81.58;100816.94;5060622;28;20024;-80
2022/02/06 02:01:25;;;;;;;;;;;;;;;8.88;80.00;100812.19;5079356;28;20036;-79
2022/02/06 02:25:05;;;;;;;21.75;13.10;;;;;;;8.93;76.52;100804.47;5078799;28;20032;-79
2022/02/06 02:43:44;;;;;;;;;;;;;;;8.81;75.91;100812.72;5039257;28;20131;-80
2022/02/06 02:46:11;;;;;;;21.20;11.95;;;;;;;8.76;76.40;100818.47;5038970;28;19913;-80
2022/02/06 02:48:41;;;;;;;18.55;12.85;;;;;;;8.72;76.47;100816.69;5040009;28;20035;-80
2022/02/06 02:51:08;;;;;;;21.63;12.63;;;;;;;8.77;76.13;100811.75;5038089;28;20034;-80
2022/02/06 02:53:47;;;;;;;18.30;12.55;;;;;;;8.73;76.02;100805.25;5038389;28;20029;-80
2022/02/06 02:56:24;;;;;;;17.58;11.73;;;;;;;8.67;76.24;100806.59;5038867;28;20060;-80
2022/02/06 03:01:58;;;;;;;20.75;12.63;;;;;;;8.72;76.03;100802.81;5034379;28;20183;-78
2022/02/06 03:04:24;;;;;;;16.65;12.25;;;;;;;8.82;75.11;100803.25;5037136;28;20079;-78
2022/02/06 03:06:55;;;;;;;17.38;12.07;;;;;;;8.78;75.58;100807.84;5036775;28;20029;-80
2022/02/06 03:09:23;;;;;;;24.25;14.30;;;;;;;8.74;75.21;100801.34;5036245;28;20044;-77
2022/02/06 03:11:48;;;;;;;22.75;13.82;;;;;;;8.68;75.76;100808.22;5035702;28;20087;-78
2022/02/06 03:14:22;;;;;;;22.00;13.98;;;;;;;8.55;76.15;100795.41;5037779;28;20033;-80
2022/02/06 03:17:02;;;;;;;17.20;10.70;;;;;;;8.74;75.59;100798.56;5038301;28;20033;-79
2022/02/06 03:19:39;;;;;;;17.73;10.30;;;;;;;8.59;75.69;100788.06;5037614;28;20137;-78
2022/02/06 03:22:05;;;;;;;21.02;12.63;;;;;;;8.55;75.64;100798.19;5037419;28;20132;-78
2022/02/06 03:24:39;;;;;;;20.20;10.77;;;;;;;8.58;75.16;100808.63;5037713;28;20033;-78
2022/02/06 03:27:05;;;;;;;22.83;12.80;;;;;;;8.57;75.65;100806.97;5037044;28;20033;-78
2022/02/06 03:29:31;;;;;;;28.60;15.05;;;;;;;8.50;76.27;100795.59;5037918;28;20052;-79
2022/02/06 03:31:59;;;;;;;20.75;13.82;;;;;;;8.55;76.26;100803.72;5038283;28;20040;-78
2022/02/06 03:34:27;;;;;;;23.55;14.27;;;;;;;8.37;76.09;100776.09;5037378;28;20021;-78
2022/02/06 03:36:53;;;;;;;23.45;14.80;;;;;;;8.49;75.97;100803.09;5053431;28;20052;-78
2022/02/06 03:39:25;;;;;;;26.02;16.92;;;;;;;8.43;76.52;100809.19;5057820;28;20025;-79
2022/02/06 03:42:04;;;;;;;33.13;20.53;;;;;;;8.36;76.60;100802.19;5059921;28;20079;-79
2022/02/06 03:44:49;;;;;;;31.52;22.85;;;;;;;8.43;77.20;100800.88;5057951;28;20033;-78
2022/02/06 03:47:24;;;;;;;16.98;12.98;;;;;;;8.44;77.52;100808.03;5058176;28;20064;-78
2022/02/06 03:49:59;;;;;;;24.83;15.68;;;;;;;8.40;77.03;100814.22;5058817;28;20036;-78
2022/02/06 03:52:44;;;;;;;47.33;30.92;;;;;;;8.38;76.73;100802.66;5060736;28;20093;-78
2022/02/06 03:55:17;;;;;;;149.43;95.00;;;;;;;8.42;77.32;100805.59;5058318;28;20041;-78
2022/02/06 03:57:43;;;;;;;75.60;49.20;;;;;;;8.44;76.73;100805.25;5054067;28;20059;-78
2022/02/06 04:00:15;;;;;;;81.80;51.38;;;;;;;8.33;76.98;100802.81;5054599;28;20073;-78
2022/02/06 04:02:52;;;;;;;76.60;47.83;;;;;;;8.34;77.08;100810.00;5054551;28;20534;-78
2022/02/06 04:05:18;;;;;;;65.18;41.35;;;;;;;8.24;77.47;100801.22;5054716;28;20032;-78
2022/02/06 04:07:45;;;;;;;52.45;32.53;;;;;;;8.30;77.77;100808.22;5054355;28;20025;-78
2022/02/06 04:10:13;;;;;;;60.83;35.97;;;;;;;8.27;77.35;100806.94;5054035;28;20175;-78
2022/02/06 04:12:43;;;;;;;40.78;25.85;;;;;;;8.20;77.89;100803.84;5054726;28;20078;-78
2022/02/06 04:15:38;;;;;;;37.42;23.38;;;;;;;8.21;77.87;100805.50;5055781;28;20364;-78
2022/02/06 04:18:15;;;;;;;37.08;20.45;;;;;;;8.27;78.04;100809.69;5055205;28;20037;-78
2022/02/06 04:20:41;;;;;;;43.83;24.05;;;;;;;8.21;77.55;100804.69;5054812;28;20025;-78
2022/02/06 04:23:08;;;;;;;34.35;20.58;;;;;;;8.13;77.23;100800.78;5057221;28;20108;-78
2022/02/06 04:25:36;;;;;;;30.17;16.63;;;;;;;8.14;77.75;100800.44;5058509;28;20111;-78
2022/02/06 04:28:07;;;;;;;28.73;17.52;;;;;;;8.08;78.25;100798.19;5058169;28;20041;-78
2022/02/06 04:30:35;;;;;;;22.38;13.40;;;;;;;7.96;77.71;100798.06;5058587;28;20028;-78
2022/02/06 04:33:15;;;;;;;17.63;11.10;;;;;;;8.09;77.07;100803.38;5058757;28;20112;-78
2022/02/06 04:35:45;;;;;;;23.15;13.57;;;;;;;8.11;77.11;100811.38;5058776;28;20057;-78
2022/02/06 04:41:05;;;;;;;18.15;11.38;;;;;;;8.07;77.69;100804.88;5059874;28;20043;-79
2022/02/06 04:47:47;;;;;;;12.98;9.18;;;;;;;8.02;77.10;100816.94;5059793;28;19912;-79
2022/02/06 05:16:39;;;;;;;14.10;10.68;;;;;;;7.94;77.36;100844.69;5060199;28;20037;-78
2022/02/06 05:32:32;;;;;;;15.38;10.50;;;;;;;7.85;78.23;100850.25;5058858;28;20025;-78
2022/02/06 05:35:01;;;;;;;14.18;10.40;;;;;;;7.86;77.43;100854.63;5057614;28;20119;-77
2022/02/06 05:37:29;;;;;;;18.20;11.05;;;;;;;7.86;77.09;100855.44;5061441;28;20035;-78
2022/02/06 05:39:55;;;;;;;15.88;10.43;;;;;;;7.87;77.23;100862.63;5062307;28;20067;-78
2022/02/06 05:42:23;;;;;;;15.90;9.43;;;;;;;7.79;77.30;100855.13;5061469;28;20029;-78
2022/02/06 05:44:55;;;;;;;16.05;10.75;;;;;;;7.71;78.14;100853.19;5061978;28;20070;-78
2022/02/06 05:47:27;;;;;;;14.98;10.10;;;;;;;7.70;78.39;100850.75;5061853;28;20070;-78
2022/02/06 05:49:58;;;;;;;18.52;10.27;;;;;;;7.80;78.05;100862.31;5060164;28;20036;-78
2022/02/06 05:52:24;;;;;;;21.30;11.05;;;;;;;7.75;78.05;100859.69;5062646;28;20025;-78
2022/02/06 05:54:53;;;;;;;19.35;10.55;;;;;;;7.76;77.78;100861.31;5061273;28;20467;-78
2022/02/06 05:57:22;;;;;;;18.83;11.32;;;;;;;7.78;77.93;100870.16;5061527;28;20092;-78
2022/02/06 05:59:53;;;;;;;23.05;11.35;;;;;;;7.71;77.86;100864.25;5061843;28;20039;-78
2022/02/06 06:02:18;;;;;;;20.35;11.82;;;;;;;7.79;77.97;100877.31;5062696;28;20031;-78
2022/02/06 06:04:49;;;;;;;16.85;11.27;;;;;;;7.72;77.56;100874.19;5061544;28;20387;-78
2022/02/06 06:07:20;;;;;;;20.45;11.50;;;;;;;7.78;77.71;100880.41;5062169;28;20048;-78
2022/02/06 06:09:49;;;;;;;18.90;12.38;;;;;;;7.77;76.86;100884.28;5062214;28;20427;-78
2022/02/06 06:12:21;;;;;;;16.77;11.65;;;;;;;7.86;77.42;100885.13;5062345;28;20421;-78
2022/02/06 06:14:55;;;;;;;16.83;11.00;;;;;;;7.84;76.81;100891.00;5078812;28;20040;-78
2022/02/06 06:17:23;;;;;;;12.73;10.10;;;;;;;7.96;76.62;100892.28;5060818;28;20544;-79
2022/02/06 06:19:48;;;;;;;18.20;12.25;;;;;;;7.90;76.29;100888.06;5060877;28;20123;-80
2022/02/06 06:22:21;;;;;;;17.77;11.95;;;;;;;7.93;76.45;100895.69;5062210;28;20126;-78
2022/02/06 06:24:52;;;;;;;18.30;12.02;;;;;;;8.01;76.15;100890.16;5059797;28;20028;-78
2022/02/06 06:27:21;;;;;;;26.52;14.98;;;;;;;8.15;75.34;100912.16;5060685;28;20065;-79
2022/02/06 06:29:49;;;;;;;30.25;14.05;;;;;;;8.16;75.57;100908.22;5060227;28;20423;-77
2022/02/06 06:32:15;;;;;;;34.47;16.20;;;;;;;8.11;74.79;100900.09;5060283;28;20477;-77
2022/02/06 06:34:43;;;;;;;27.90;15.85;;;;;;;8.20;75.20;100909.19;5060830;28;20028;-78
2022/02/06 06:37:11;;;;;;;36.83;19.58;;;;;;;8.24;74.96;100921.25;5062546;28;20115;-80
2022/02/06 06:39:44;;;;;;;29.92;18.25;;;;;;;8.25;75.13;100917.31;5061281;28;20025;-77
2022/02/06 06:42:14;;;;;;;34.23;18.40;;;;;;;8.31;74.50;100923.50;5057693;28;20029;-80
2022/02/06 06:44:44;;;;;;;39.40;18.75;;;;;;;8.36;74.80;100928.91;5057809;28;20279;-78
2022/02/06 06:47:15;;;;;;;36.55;18.92;;;;;;;8.44;73.93;100941.16;5058288;28;20025;-79
2022/02/06 06:49:40;;;;;;;43.28;18.25;;;;;;;8.57;73.32;100935.38;5059093;28;20067;-78
2022/02/06 06:52:14;;;;;;;32.58;18.13;;;;;;;8.62;73.43;100929.66;5077523;28;20028;-78
2022/02/06 06:54:46;;;;;;;35.03;18.88;;;;;;;8.91;72.68;100934.44;5060063;28;20028;-79
2022/02/06 06:57:26;;;;;;;29.40;16.48;;;;;;;9.23;71.27;100939.69;5076638;28;20417;-79
2022/02/06 07:02:28;;;;;;;31.60;16.50;;;;;;;9.64;69.52;100942.53;5074584;28;20090;-79
2022/02/06 07:04:57;;;;;;;33.30;16.02;;;;;;;9.65;68.22;100946.13;5076638;28;20099;-79
2022/02/06 07:07:27;;;;;;;35.60;16.45;;;;;;;9.67;68.54;100943.81;5060888;28;20077;-78
2022/02/06 07:09:53;;;;;;;33.45;15.50;;;;;;;9.84;67.55;100942.84;5060106;28;20032;-79
2022/02/06 07:12:25;;;;;;;31.02;14.65;;;;;;;10.33;66.38;100941.13;5059338;28;20027;-78
2022/02/06 07:14:51;;;;;;;28.02;15.07;;;;;;;10.53;65.67;100952.53;5059636;28;20029;-79
2022/02/06 07:17:17;;;;;;;25.48;14.82;;;;;;;10.55;64.92;100944.69;5060277;28;20025;-79
2022/02/06 07:19:48;;;;;;;26.88;14.48;;;;;;;11.05;63.83;100947.19;5066030;28;20059;-80
2022/02/06 07:22:16;;;;;;;18.98;14.43;;;;;;;11.54;62.53;100953.53;5086053;28;20024;-82
2022/02/06 07:24:47;;;;;;;24.23;15.43;;;;;;;12.12;60.95;100950.50;5068480;28;20037;-78
2022/02/06 07:27:22;;;;;;;20.15;14.98;;;;;;;12.55;59.50;100946.91;5068517;28;20086;-81
2022/02/06 07:29:53;;;;;;;31.70;14.95;;;;;;;12.89;57.45;100944.63;5071970;28;20043;-81
2022/02/06 07:32:22;;;;;;;17.63;12.45;;;;;;;13.39;55.98;100954.25;5071505;28;20029;-81
2022/02/06 07:34:47;;;;;;;16.58;10.98;;;;;;;13.63;55.52;100945.63;5072615;28;20096;-81
2022/02/06 07:37:13;;;;;;;21.65;12.13;;;;;;;14.10;54.01;100957.81;5067741;28;20048;-81
2022/02/06 07:39:40;;;;;;;19.33;11.05;;;;;;;13.96;53.17;100963.94;5068264;28;20096;-81
2022/02/06 07:42:09;;;;;;;15.07;10.82;;;;;;;13.80;54.44;100960.38;5071125;28;20033;-81
2022/02/06 07:44:38;;;;;;;16.48;10.23;;;;;;;13.60;54.71;100959.53;5068468;28;20040;-81
2022/02/06 07:47:16;;;;;;;25.75;14.10;;;;;;;13.76;54.11;100951.09;5068941;28;20105;-81
2022/02/06 07:49:45;;;;;;;27.63;17.90;;;;;;;13.52;54.74;100952.94;5068285;28;20029;-81
2022/02/06 07:52:13;;;;;;;33.97;19.80;;;;;;;14.04;53.65;100953.69;5066748;28;20087;-81
2022/02/06 07:54:47;;;;;;;33.33;17.70;;;;;;;14.57;51.48;100946.38;5068353;28;20025;-81
2022/02/06 07:57:12;;;;;;;;;;;;;;;15.06;50.41;100954.06;5070200;28;20053;-80
2022/02/06 07:59:38;;;;;;;22.77;15.82;;;;;;;15.47;49.52;100951.50;5070680;28;19915;-80
2022/02/06 08:02:07;;;;;;;23.27;13.35;;;;;;;15.94;47.68;100948.19;5070131;28;20039;-80
2022/02/06 08:04:34;;;;;;;26.92;13.68;;;;;;;16.40;45.63;100944.31;5067476;28;20029;-79
2022/02/06 08:07:00;;;;;;;26.83;12.57;;;;;;;16.72;45.50;100945.53;5058986;28;20099;-80
2022/02/06 08:09:47;;;;;;;24.85;12.65;;;;;;;17.10;44.77;100949.09;5057915;28;20029;-80
2022/02/06 08:12:14;;;;;;;14.48;10.70;;;;;;;17.59;43.95;100950.66;5057866;28;20029;-81
2022/02/06 08:14:51;;;;;;;23.85;11.68;;;;;;;17.85;42.39;100946.81;5056464;28;20025;-84
2022/02/06 08:17:23;;;;;;;14.30;10.98;;;;;;;18.11;41.30;100947.72;5056744;28;20037;-83
2022/02/06 08:19:51;;;;;;;16.75;10.15;;;;;;;17.77;39.61;100954.38;5057188;28;20086;-83
2022/02/06 08:22:20;;;;;;;20.58;8.40;;;;;;;17.72;41.27;100948.28;5055739;28;20357;-84
2022/02/06 08:24:49;;;;;;;13.88;7.82;;;;;;;17.84;40.98;100958.44;5056455;28;20059;-83
2022/02/06 08:27:17;;;;;;;13.32;7.85;;;;;;;18.09;40.42;100947.31;5055983;28;20060;-82
2022/02/06 08:29:45;;;;;;;22.60;9.90;;;;;;;18.49;39.45;100957.53;5055359;28;20029;-82
2022/02/06 08:32:14;;;;;;;13.77;9.00;;;;;;;18.73;38.67;100950.34;5055840;28;20060;-82
2022/02/06 08:34:42;;;;;;;13.77;9.30;;;;;;;18.79;39.22;100949.53;5055707;28;20025;-83
2022/02/06 08:37:09;;;;;;;19.13;12.05;;;;;;;18.59;38.81;100959.56;5054868;28;20045;-83
2022/02/06 08:39:39;;;;;;;12.73;8.18;;;;;;;18.43;38.45;100953.47;5055586;28;20028;-82
2022/02/06 08:42:08;;;;;;;18.65;10.45;;;;;;;18.59;38.01;100963.19;5057018;28;20075;-83
2022/02/06 08:44:36;;;;;;;14.93;8.43;;;;;;;18.99;38.54;100963.28;5054935;28;20063;-82
2022/02/06 08:47:02;;;;;;;11.00;7.38;;;;;;;19.05;37.56;100967.31;5056982;28;20040;-83
2022/02/06 08:49:27;;;;;;;12.65;7.25;;;;;;;18.26;38.69;100960.66;5055376;28;20025;-82
2022/02/06 08:51:53;;;;;;;11.00;8.77;;;;;;;17.60;40.00;100963.50;5055580;28;20490;-83
2022/02/06 08:54:24;;;;;;;19.77;11.77;;;;;;;17.71;39.93;100964.38;5055209;28;20399;-81
2022/02/06 08:57:01;;;;;;;12.95;7.90;;;;;;;16.56;41.89;100970.19;5058335;28;20429;-80
2022/02/06 08:59:27;;;;;;;11.48;7.88;;;;;;;16.19;43.76;100976.59;5059583;28;20120;-80
2022/02/06 09:01:56;;;;;;;15.38;8.50;;;;;;;17.11;42.50;100975.19;5061168;28;20056;-80
2022/02/06 09:04:24;;;;;;;13.75;8.25;;;;;;;17.49;40.89;100963.44;5054832;28;20048;-81
2022/02/06 09:06:50;;;;;;;10.55;7.97;;;;;;;17.68;41.11;100970.78;5055069;28;20467;-82
2022/02/06 09:09:18;;;;;;;12.02;7.85;;;;;;;16.97;42.42;100959.78;5053684;28;20145;-83
2022/02/06 09:11:45;;;;;;;20.33;8.57;;;;;;;16.75;42.77;100972.03;5054420;28;20372;-82
2022/02/06 09:14:17;;;;;;;15.73;10.93;;;;;;;17.27;41.56;100968.09;5054902;28;20352;-81
2022/02/06 09:16:42;;;;;;;14.48;8.75;;;;;;;17.82;40.86;100974.94;5054676;28;20036;-81
2022/02/06 09:19:13;;;;;;;14.88;9.20;;;;;;;17.53;40.85;100975.53;5055228;28;20025;-83
2022/02/06 09:21:39;;;;;;;15.02;8.02;;;;;;;18.28;39.82;100967.50;5054374;28;20032;-83
2022/02/06 09:24:08;;;;;;;14.23;7.85;;;;;;;18.70;38.25;100971.69;5054233;28;20021;-83
2022/02/06 09:26:37;;;;;;;12.38;7.70;;;;;;;18.87;37.41;100972.13;5054369;28;20033;-82
2022/02/06 09:29:06;;;;;;;14.88;8.55;;;;;;;18.87;37.38;100972.94;5054016;28;20029;-83
2022/02/06 09:31:32;;;;;;;15.15;8.80;;;;;;;18.29;38.60;100991.66;5056102;28;20048;-82
2022/02/06 09:36:25;;;;;;;13.30;7.88;;;;;;;18.66;37.88;100965.22;5067568;28;20109;-82
2022/02/06 09:38:51;;;;;;;10.30;7.03;;;;;;;19.43;37.15;100982.63;5057347;28;20035;-82
2022/02/06 09:41:17;;;;;;;18.23;8.70;;;;;;;19.77;35.74;100988.66;5057592;28;20382;-80
2022/02/06 09:43:44;;;;;;;35.97;19.80;;;;;;;19.44;36.74;100977.78;5057083;28;20025;-79
2022/02/06 09:46:13;;;;;;;26.02;14.13;;;;;;;19.36;36.11;100977.78;5057198;28;20027;-80
2022/02/06 09:48:39;;;;;;;15.93;9.40;;;;;;;18.73;38.25;100984.19;5057063;28;20031;-81
2022/02/06 09:51:04;;;;;;;67.10;32.22;;;;;;;18.61;38.32;100979.69;5056756;28;20025;-80
2022/02/06 09:53:31;;;;;;;14.07;9.05;;;;;;;18.65;38.57;100983.34;5057218;28;20028;-80
2022/02/06 09:56:02;;;;;;;17.13;12.18;;;;;;;19.37;36.48;100979.41;5056983;28;20043;-80
2022/02/06 10:01:09;;;;;;;33.75;10.95;;;;;;;18.75;37.73;100988.22;5074926;28;20060;-81
2022/02/06 10:03:47;;;;;;;17.23;8.50;;;;;;;19.22;37.98;100983.41;5056880;28;20055;-81
2022/02/06 10:06:29;;;;;;;17.40;9.45;;;;;;;19.95;36.12;100980.13;5075189;28;20032;-80
2022/02/06 10:09:03;;;;;;;17.08;7.55;;;;;;;19.22;36.59;100955.22;5056822;28;20020;-81
2022/02/06 10:11:30;;;;;;;21.15;9.63;;;;;;;18.85;37.41;100980.97;5054374;28;20056;-81
2022/02/06 10:13:56;;;;;;;24.25;9.73;;;;;;;18.61;38.40;100981.72;5040491;28;20112;-83
2022/02/06 10:16:23;;;;;;;17.05;8.13;;;;;;;18.48;38.72;100973.63;5057494;28;20455;-84
2022/02/06 10:18:51;;;;;;;41.33;17.02;;;;;;;18.57;38.95;100976.06;5056992;28;20028;-81
2022/02/06 10:21:27;;;;;;;31.48;19.92;;;;;;;18.40;38.54;100971.97;5056460;28;20165;-82
2022/02/06 10:24:03;;;;;;;16.38;9.10;;;;;;;18.30;39.08;100967.91;5057350;28;20467;-83
2022/02/06 10:26:40;;;;;;;11.10;6.93;;;;;;;19.00;37.67;100964.88;5056662;28;20032;-84
2022/02/06 10:31:43;;;;;;;16.45;6.80;;;;;;;18.15;39.50;100960.59;5080161;28;20040;-81
2022/02/06 10:34:31;;;;;;;45.05;17.58;;;;;;;18.58;38.00;100952.28;5060380;28;20052;-81
2022/02/06 10:37:15;;;;;;;22.25;7.05;;;;;;;18.27;38.44;100946.19;5052878;28;20061;-82
2022/02/06 10:39:56;;;;;;;15.65;9.32;;;;;;;18.63;37.98;100920.91;5054052;28;20148;-81
2022/02/06 10:42:27;;;;;;;15.90;7.88;;;;;;;19.50;37.00;100936.66;5052784;28;20115;-83
2022/02/06 10:45:12;;;;;;;12.32;4.60;;;;;;;18.86;37.09;100931.06;5052835;28;20033;-83
2022/02/06 10:47:41;;;;;;;8.93;5.78;;;;;;;18.67;38.14;100926.56;5056764;28;20029;-80
2022/02/06 10:50:15;;;;;;;8.52;4.50;;;;;;;18.35;38.82;100929.31;5058293;28;20037;-81
2022/02/06 10:52:44;;;;;;;12.20;6.00;;;;;;;18.30;39.35;100927.66;5061489;28;20036;-80
2022/02/06 10:55:11;;;;;;;10.50;5.60;;;;;;;18.48;38.47;100906.00;5053639;28;20120;-80
2022/02/06 10:57:57;;;;;;;12.02;5.90;;;;;;;19.35;37.57;100916.94;5053501;28;20067;-81
2022/02/06 11:00:36;;;;;;;13.63;7.70;;;;;;;19.94;35.73;100915.59;5052902;28;20037;-82
2022/02/06 11:03:27;;;;;;;16.30;7.03;;;;;;;19.10;37.01;100914.13;5053185;28;20544;-82
2022/02/06 11:05:55;;;;;;;13.13;7.47;;;;;;;19.12;37.70;100910.88;5052782;28;20387;-82
2022/02/06 11:08:34;;;;;;;10.85;6.15;;;;;;;18.11;38.92;100914.75;5052772;28;20036;-80
2022/02/06 11:11:10;;;;;;;14.68;6.57;;;;;;;18.76;38.45;100907.28;5059499;28;20033;-80
2022/02/06 11:13:37;;;;;;;11.02;7.60;;;;;;;18.88;38.08;100906.06;5052776;28;20036;-82
2022/02/06 11:16:16;;;;;;;8.90;5.75;;;;;;;18.65;38.75;100909.25;5051981;28;20033;-82
2022/02/06 11:18:55;;;;;;;15.68;7.07;;;;;;;18.22;39.19;100903.53;5053522;28;20032;-82
2022/02/06 11:21:22;;;;;;;14.25;6.82;;;;;;;18.23;39.66;100900.28;5052558;28;20115;-82
2022/02/06 11:23:52;;;;;;;11.82;6.43;;;;;;;18.62;38.70;100905.19;5052697;28;20032;-82
2022/02/06 11:26:22;;;;;;;13.55;6.28;;;;;;;19.03;37.96;100893.59;5051825;28;20033;-82
2022/02/06 11:28:53;;;;;;;11.10;5.90;;;;;;;19.30;37.31;100889.13;5051654;28;20494;-79
2022/02/06 11:31:25;;;;;;;14.65;8.85;;;;;;;19.20;37.29;100883.50;5052061;28;20029;-81
2022/02/06 11:33:51;;;;;;;17.52;6.63;;;;;;;19.80;36.52;100886.19;5053242;28;20048;-80
2022/02/06 11:42:59;;;;;;;14.65;6.53;;;;;;;20.31;35.54;100890.41;5051894;28;20491;-80
2022/02/06 11:45:21;;;;;;;10.88;6.00;;;;;;;21.52;33.82;100870.84;5053188;28;20032;-81
2022/02/06 11:47:56;;;;;;;9.00;5.95;;;;;;;21.31;33.23;100860.56;5052245;28;20056;-81
2022/02/06 11:50:22;;;;;;;11.23;7.22;;;;;;;21.37;33.84;100871.00;5052378;28;20353;-80
2022/02/06 11:52:56;;;;;;;12.00;6.05;;;;;;;21.40;34.07;100864.50;5051827;28;20024;-81
2022/02/06 11:55:48;;;;;;;10.35;6.07;;;;;;;21.62;33.69;100855.75;5051986;28;20067;-80
2022/02/06 11:58:38;;;;;;;12.65;7.68;;;;;;;21.48;33.93;100861.59;5051863;28;20091;-81
2022/02/06 12:01:07;;;;;;;16.52;7.15;;;;;;;20.53;35.71;100853.53;5051793;28;20025;-82
2022/02/06 12:04:05;;;;;;;11.07;6.97;;;;;;;20.64;35.32;100857.09;5052119;28;20029;-82
2022/02/06 12:06:36;;;;;;;13.15;6.35;;;;;;;20.59;35.21;100854.69;5051963;28;20026;-82
2022/02/06 12:09:02;;;;;;;11.32;5.63;;;;;;;20.81;34.77;100855.34;5052614;28;20363;-81
2022/02/06 12:11:29;;;;;;;11.93;5.70;;;;;;;21.25;33.72;100840.34;5051751;28;20032;-81
2022/02/06 12:14:15;;;;;;;9.68;5.05;;;;;;;21.34;33.20;100843.53;5052440;28;20032;-82
2022/02/06 12:16:56;;;;;;;10.60;5.28;;;;;;;20.99;33.35;100846.72;5051965;28;20037;-80
2022/02/06 12:19:32;;;;;;;12.27;6.55;;;;;;;20.67;33.59;100848.59;5051843;28;20463;-81
2022/02/06 12:22:27;;;;;;;11.05;7.00;;;;;;;20.74;33.46;100836.41;5051870;28;20035;-81
2022/02/06 12:25:18;;;;;;;10.15;4.80;;;;;;;20.51;32.78;100845.47;5051577;28;20033;-82
2022/02/06 12:27:47;;;;;;;10.98;5.03;;;;;;;19.57;34.45;100849.94;5051859;28;20029;-81
2022/02/06 12:30:21;;;;;;;11.48;5.82;;;;;;;19.40;34.71;100836.72;5036185;28;20057;-79
2022/02/06 12:32:50;;;;;;;9.93;4.95;;;;;;;18.89;35.76;100842.81;5051862;28;20029;-80
2022/02/06 12:38:00;;;;;;;8.35;4.15;;;;;;;18.66;37.36;100838.38;5073732;28;20040;-79
2022/02/06 12:40:28;;;;;;;10.93;3.83;;;;;;;19.02;37.57;100833.56;5055514;28;20028;-79
2022/02/06 12:43:04;;;;;;;8.73;4.45;;;;;;;19.13;38.07;100836.38;5055715;28;20021;-79
2022/02/06 12:45:32;;;;;;;16.13;4.38;;;;;;;19.41;38.11;100820.56;5076082;28;20501;-79
2022/02/06 12:48:00;;;;;;;11.75;5.03;;;;;;;19.36;38.57;100825.41;5058786;28;20025;-80
2022/02/06 12:50:29;;;;;;;9.45;4.95;;;;;;;19.41;38.66;100826.22;5058588;28;20028;-80
2022/02/06 12:52:55;;;;;;;10.48;4.40;;;;;;;19.17;39.04;100811.75;5059023;28;20032;-80
2022/02/06 12:55:26;;;;;;;8.27;4.47;;;;;;;18.63;39.69;100810.19;5058631;28;20376;-80
2022/02/06 12:57:54;;;;;;;10.10;5.07;;;;;;;19.08;39.68;100819.84;5058955;28;20486;-80
2022/02/06 13:00:47;;;;;;;11.35;5.18;;;;;;;19.15;40.12;100814.19;5058600;28;20040;-80
2022/02/06 13:03:29;;;;;;;13.70;5.20;;;;;;;19.14;40.21;100811.78;5058794;28;20043;-80
2022/02/06 13:06:01;;;;;;;8.10;3.85;;;;;;;19.17;38.98;100806.13;5058398;28;20024;-81
2022/02/06 13:08:29;;;;;;;7.20;3.70;;;;;;;19.31;38.03;100800.44;5058294;28;20035;-81
2022/02/06 13:11:05;;;;;;;6.75;4.10;;;;;;;19.41;37.82;100801.63;5058045;28;20062;-79
2022/02/06 13:13:53;;;;;;;6.72;3.85;;;;;;;19.38;37.90;100802.44;5058254;28;20032;-80
2022/02/06 13:27:24;;;;;;;15.15;6.68;;;;;;;18.66;41.10;100782.00;5075872;28;20032;-78
2022/02/06 13:35:28;;;;;;;10.25;5.40;;;;;;;18.68;42.62;100785.25;5076370;28;20043;-77
2022/02/06 13:38:02;;;;;;;14.68;4.53;;;;;;;18.58;43.54;100780.38;5059403;28;20119;-78
2022/02/06 13:40:33;;;;;;;13.38;5.32;;;;;;;18.43;43.34;100773.13;5058741;28;20447;-79
2022/02/06 13:43:07;;;;;;;7.50;4.25;;;;;;;17.89;45.88;100777.91;5058056;28;20484;-79
2022/02/06 13:45:42;;;;;;;11.25;4.15;;;;;;;17.95;46.71;100776.31;5058387;28;20032;-79
2022/02/06 13:48:09;;;;;;;10.18;3.80;;;;;;;18.03;47.20;100769.50;5058147;28;20025;-79
2022/02/06 13:50:41;;;;;;;10.32;5.03;;;;;;;18.15;46.96;100768.31;5059282;28;20481;-79
2022/02/06 13:53:20;;;;;;;7.35;3.65;;;;;;;18.08;47.11;100771.13;5058502;28;20086;-79
2022/02/06 13:55:50;;;;;;;12.77;4.95;;;;;;;17.87;47.52;100757.81;5057397;28;20029;-79
2022/02/06 13:58:21;;;;;;;11.15;4.50;;;;;;;17.74;47.93;100771.44;5057760;28;20040;-78
2022/02/06 14:01:07;;;;;;;10.80;4.55;;;;;;;17.63;48.64;100771.38;5058005;28;20032;-78
2022/02/06 14:03:47;;;;;;;9.10;4.20;;;;;;;17.31;49.49;100779.69;5059449;28;20035;-78
2022/02/06 14:06:32;;;;;;;15.68;4.28;;;;;;;17.71;48.86;100773.00;5058275;28;20036;-78